createdAt,value
2023-02-19T00:00:13.978Z,72.17
2023-02-19T00:02:42.833Z,71.51
2023-02-19T00:05:10.655Z,72.08
2023-02-19T00:07:46.244Z,71.12
2023-02-19T00:10:13.946Z,70.76
2023-02-19T00:12:41.643Z,72.37
2023-02-19T00:15:13.503Z,71.68
2023-02-19T00:17:41.258Z,71.30
2023-02-19T00:20:09.828Z,71.76
2023-02-19T00:22:39.572Z,71.21
2023-02-19T00:25:09.102Z,70.41
2023-02-19T00:27:36.806Z,71.00
2023-02-19T00:30:09.139Z,70.30
2023-02-19T00:32:36.915Z,69.30
2023-02-19T00:35:04.780Z,71.72
2023-02-19T00:37:36.652Z,70.78
2023-02-19T00:40:04.370Z,73.13
2023-02-19T00:42:33.434Z,71.58
2023-02-19T00:45:05.279Z,72.29
2023-02-19T00:47:32.975Z,72.75
2023-02-19T00:50:00.692Z,71.16
2023-02-19T00:52:32.555Z,71.07
2023-02-19T00:55:00.257Z,71.42
2023-02-19T00:57:27.939Z,71.78
2023-02-19T01:00:01.159Z,71.32
2023-02-19T01:02:28.911Z,71.71
2023-02-19T01:04:56.602Z,72.15
2023-02-19T01:07:28.521Z,73.01
2023-02-19T01:10:00.980Z,73.58
2023-02-19T01:12:28.815Z,73.58
2023-02-19T01:14:59.815Z,73.18
2023-02-19T01:17:33.964Z,73.15
2023-02-19T01:20:01.785Z,74.30
2023-02-19T01:22:29.483Z,72.02
2023-02-19T01:24:59.356Z,72.73
2023-02-19T01:27:29.004Z,73.02
2023-02-19T01:29:58.067Z,71.78
2023-02-19T01:32:28.142Z,71.62
2023-02-19T01:34:57.675Z,71.22
2023-02-19T01:37:25.410Z,72.18
2023-02-19T01:39:55.437Z,70.81
2023-02-19T01:42:25.118Z,71.33
2023-02-19T01:45:26.378Z,71.60
2023-02-19T01:47:59.816Z,71.75
2023-02-19T01:50:33.812Z,71.34
2023-02-19T01:53:07.344Z,71.15
2023-02-19T01:55:37.840Z,70.58
2023-02-19T01:58:05.489Z,70.47
2023-02-19T02:00:37.166Z,70.46
2023-02-19T02:03:07.221Z,71.51
2023-02-19T02:05:48.342Z,71.95
2023-02-19T02:08:37.196Z,70.66
2023-02-19T02:11:07.042Z,70.98
2023-02-19T02:13:40.022Z,70.60
2023-02-19T02:16:23.701Z,69.83
2023-02-19T02:19:02.922Z,71.15
2023-02-19T02:21:54.246Z,71.06
2023-02-19T02:24:45.973Z,69.79
2023-02-19T02:27:28.761Z,70.50
2023-02-19T02:30:25.376Z,69.99
2023-02-19T02:33:02.152Z,69.74
2023-02-19T02:35:33.943Z,69.50
2023-02-19T02:38:07.821Z,68.43
2023-02-19T02:40:41.852Z,68.83
2023-02-19T02:43:09.725Z,68.62
2023-02-19T02:45:41.822Z,68.15
2023-02-19T02:48:26.243Z,67.35
2023-02-19T02:51:00.710Z,69.06
2023-02-19T02:53:53.451Z,68.30
2023-02-19T02:56:25.580Z,68.22
2023-02-19T02:58:54.529Z,68.43
2023-02-19T03:01:53.245Z,68.16
2023-02-19T03:04:36.722Z,68.53
2023-02-19T03:07:10.272Z,67.62
2023-02-19T03:09:45.402Z,67.13
2023-02-19T03:12:36.697Z,66.59
2023-02-19T03:15:30.410Z,67.95
2023-02-19T03:18:22.249Z,67.36
2023-02-19T03:20:56.074Z,67.44
2023-02-19T03:23:45.132Z,66.77
2023-02-19T03:26:15.736Z,66.51
2023-02-19T03:29:05.719Z,66.18
2023-02-19T03:31:36.805Z,66.81
2023-02-19T03:34:14.384Z,66.08
2023-02-19T03:36:48.717Z,66.43
2023-02-19T03:39:23.512Z,66.74
2023-02-19T03:42:01.881Z,65.77
2023-02-19T03:44:42.675Z,66.27
2023-02-19T03:47:19.329Z,66.74
2023-02-19T03:49:55.866Z,66.06
2023-02-19T03:52:33.139Z,66.44
2023-02-19T03:55:11.994Z,65.90
2023-02-19T03:57:50.636Z,66.08
2023-02-19T04:00:24.188Z,65.66
2023-02-19T04:02:59.102Z,65.24
2023-02-19T04:05:33.150Z,65.87
2023-02-19T04:08:08.902Z,65.49
2023-02-19T04:10:40.827Z,65.35
2023-02-19T04:13:16.696Z,65.75
2023-02-19T04:15:50.308Z,66.67
2023-02-19T04:18:24.536Z,65.97
2023-02-19T04:20:58.057Z,67.00
2023-02-19T04:23:31.100Z,66.40
2023-02-19T04:26:02.817Z,66.27
2023-02-19T04:28:30.562Z,66.65
2023-02-19T04:31:00.300Z,67.05
2023-02-19T04:33:30.308Z,66.98
2023-02-19T04:35:59.383Z,66.81
2023-02-19T04:38:29.478Z,66.74
2023-02-19T04:40:59.417Z,67.42
2023-02-19T04:43:27.086Z,67.18
2023-02-19T04:46:03.003Z,67.18
2023-02-19T04:48:33.091Z,66.70
2023-02-19T04:51:08.263Z,66.36
2023-02-19T04:53:36.629Z,67.24
2023-02-19T04:56:12.759Z,67.03
2023-02-19T04:58:41.762Z,66.30
2023-02-19T05:01:13.099Z,67.39
2023-02-19T05:03:43.304Z,66.41
2023-02-19T05:06:14.924Z,66.33
2023-02-19T05:08:42.986Z,66.47
2023-02-19T05:11:14.663Z,65.98
2023-02-19T05:13:44.615Z,66.71
2023-02-19T05:16:17.188Z,66.26
2023-02-19T05:18:46.515Z,67.27
2023-02-19T05:21:21.672Z,66.73
2023-02-19T05:23:49.453Z,66.80
2023-02-19T05:26:24.456Z,67.63
2023-02-19T05:28:54.277Z,67.32
2023-02-19T05:31:24.712Z,67.25
2023-02-19T05:33:54.787Z,67.75
2023-02-19T05:36:24.773Z,67.99
2023-02-19T05:38:57.147Z,66.95
2023-02-19T05:41:28.269Z,67.72
2023-02-19T05:43:58.932Z,67.40
2023-02-19T05:46:30.614Z,68.07
2023-02-19T05:49:01.284Z,67.96
2023-02-19T05:51:31.171Z,67.84
2023-02-19T05:53:58.998Z,68.58
2023-02-19T05:56:37.851Z,67.99
2023-02-19T05:59:08.064Z,69.08
2023-02-19T06:01:38.385Z,68.42
2023-02-19T06:04:06.554Z,68.24
2023-02-19T06:06:35.614Z,67.31
2023-02-19T06:09:05.768Z,67.70
2023-02-19T06:11:35.715Z,68.09
2023-02-19T06:14:03.547Z,67.50
2023-02-19T06:16:34.432Z,67.76
2023-02-19T06:19:05.681Z,68.13
2023-02-19T06:21:37.352Z,68.76
2023-02-19T06:24:11.411Z,67.94
2023-02-19T06:26:41.416Z,67.75
2023-02-19T06:29:09.150Z,67.15
2023-02-19T06:31:37.040Z,66.82
2023-02-19T06:34:07.316Z,67.82
2023-02-19T06:36:36.399Z,68.06
2023-02-19T06:39:07.799Z,68.09
2023-02-19T06:41:37.659Z,67.70
2023-02-19T06:44:05.689Z,67.89
2023-02-19T06:46:36.019Z,68.11
2023-02-19T06:49:05.590Z,68.27
2023-02-19T06:51:33.440Z,67.25
2023-02-19T06:54:05.556Z,67.58
2023-02-19T06:56:37.610Z,67.19
2023-02-19T06:59:10.421Z,66.90
2023-02-19T07:01:41.415Z,66.98
2023-02-19T07:04:09.283Z,66.88
2023-02-19T07:06:42.760Z,67.16
2023-02-19T07:09:13.607Z,66.30
2023-02-19T07:11:43.631Z,66.99
2023-02-19T07:14:17.953Z,66.78
2023-02-19T07:16:49.602Z,66.12
2023-02-19T07:19:17.436Z,65.87
2023-02-19T07:21:45.245Z,66.27
2023-02-19T07:24:16.627Z,66.08
2023-02-19T07:26:44.354Z,66.00
2023-02-19T07:29:14.379Z,65.13
2023-02-19T07:31:42.224Z,64.77
2023-02-19T07:34:10.013Z,65.12
2023-02-19T07:36:39.900Z,65.11
2023-02-19T07:39:10.254Z,65.04
2023-02-19T07:41:39.166Z,64.88
2023-02-19T07:44:09.132Z,64.83
2023-02-19T07:46:38.723Z,64.87
2023-02-19T07:49:07.218Z,64.53
2023-02-19T07:51:34.995Z,64.42
2023-02-19T07:54:02.757Z,63.28
2023-02-19T07:56:30.547Z,64.35
2023-02-19T07:59:01.083Z,64.27
2023-02-19T08:01:42.612Z,63.66
2023-02-19T08:04:11.616Z,64.18
2023-02-19T08:06:39.372Z,63.57
2023-02-19T08:09:09.274Z,63.67
2023-02-19T08:11:56.586Z,63.75
2023-02-19T08:14:29.709Z,63.21
2023-02-19T08:16:59.564Z,62.76
2023-02-19T08:19:27.337Z,62.50
2023-02-19T08:21:56.893Z,62.63
2023-02-19T08:24:26.814Z,61.41
2023-02-19T08:26:54.486Z,62.27
2023-02-19T08:29:24.092Z,61.64
2023-02-19T08:31:55.103Z,61.23
2023-02-19T08:34:25.061Z,61.12
2023-02-19T08:36:55.346Z,61.21
2023-02-19T08:39:23.184Z,60.68
2023-02-19T08:41:52.999Z,60.89
2023-02-19T08:44:22.757Z,60.74
2023-02-19T08:46:50.493Z,59.69
2023-02-19T08:49:23.497Z,60.40
2023-02-19T08:51:51.375Z,59.48
2023-02-19T08:54:19.221Z,59.32
2023-02-19T08:56:51.075Z,59.47
2023-02-19T08:59:20.285Z,59.30
2023-02-19T09:01:52.711Z,58.73
2023-02-19T09:04:21.867Z,58.50
2023-02-19T09:06:49.620Z,58.88
2023-02-19T09:09:19.501Z,58.50
2023-02-19T09:11:49.210Z,58.38
2023-02-19T09:14:17.219Z,58.30
2023-02-19T09:16:49.005Z,57.47
2023-02-19T09:19:16.709Z,57.95
2023-02-19T09:21:45.804Z,57.60
2023-02-19T09:24:17.719Z,58.27
2023-02-19T09:26:45.443Z,57.77
2023-02-19T09:29:13.104Z,58.12
2023-02-19T09:31:45.161Z,56.99
2023-02-19T09:34:13.166Z,57.23
2023-02-19T09:36:41.076Z,57.76
2023-02-19T09:39:12.698Z,56.43
2023-02-19T09:41:46.460Z,56.76
2023-02-19T09:44:20.393Z,57.72
2023-02-19T09:46:50.054Z,56.70
2023-02-19T09:49:33.480Z,56.77
2023-02-19T09:52:05.111Z,55.87
2023-02-19T09:54:41.073Z,57.38
2023-02-19T09:57:15.905Z,56.38
2023-02-19T09:59:50.847Z,57.00
2023-02-19T10:02:21.103Z,55.72
2023-02-19T10:04:52.279Z,56.03
2023-02-19T10:07:22.838Z,55.65
2023-02-19T10:09:54.512Z,54.96
2023-02-19T10:12:27.435Z,55.63
2023-02-19T10:15:01.344Z,55.48
2023-02-19T10:17:34.671Z,55.96
2023-02-19T10:20:06.384Z,55.78
2023-02-19T10:22:39.016Z,55.58
2023-02-19T10:25:10.686Z,54.34
2023-02-19T10:27:40.481Z,54.83
2023-02-19T10:30:18.215Z,53.99
2023-02-19T10:33:00.417Z,53.01
2023-02-19T10:35:30.038Z,55.10
2023-02-19T10:38:00.047Z,53.88
2023-02-19T10:40:30.211Z,54.03
2023-02-19T10:43:01.830Z,54.37
2023-02-19T10:45:36.094Z,53.09
2023-02-19T10:48:07.303Z,54.11
2023-02-19T10:50:39.333Z,53.30
2023-02-19T10:53:07.156Z,53.73
2023-02-19T10:55:39.531Z,53.25
2023-02-19T10:58:25.264Z,53.28
2023-02-19T11:01:12.892Z,53.71
2023-02-19T11:03:40.913Z,53.73
2023-02-19T11:06:10.967Z,53.56
2023-02-19T11:08:52.012Z,53.82
2023-02-19T11:11:27.751Z,53.07
2023-02-19T11:13:57.898Z,52.78
2023-02-19T11:16:38.698Z,53.35
2023-02-19T11:19:26.576Z,53.76
2023-02-19T11:21:54.874Z,52.76
2023-02-19T11:24:38.903Z,53.25
2023-02-19T11:27:17.070Z,53.23
2023-02-19T11:29:48.876Z,52.90
2023-02-19T11:32:26.528Z,52.61
2023-02-19T11:35:17.304Z,53.17
2023-02-19T11:37:58.185Z,52.58
2023-02-19T11:40:39.394Z,52.84
2023-02-19T11:43:21.376Z,53.28
2023-02-19T11:45:58.024Z,52.96
2023-02-19T11:48:42.900Z,52.42
2023-02-19T11:51:33.684Z,51.93
2023-02-19T11:54:18.155Z,52.30
2023-02-19T11:56:57.856Z,52.41
2023-02-19T11:59:35.326Z,52.82
2023-02-19T12:02:32.614Z,52.28
2023-02-19T12:05:17.900Z,53.09
2023-02-19T12:08:10.695Z,52.53
2023-02-19T12:10:52.902Z,52.69
2023-02-19T12:13:32.998Z,51.71
2023-02-19T12:16:14.461Z,52.03
2023-02-19T12:19:23.805Z,52.00
2023-02-19T12:22:16.140Z,51.99
2023-02-19T12:25:01.128Z,51.98
2023-02-19T12:27:40.400Z,51.29
2023-02-19T12:30:28.207Z,50.88
2023-02-19T12:33:18.524Z,50.38
2023-02-19T12:35:58.119Z,50.91
2023-02-19T12:38:35.094Z,51.09
2023-02-19T12:41:19.897Z,51.31
2023-02-19T12:43:54.677Z,50.92
2023-02-19T12:46:29.103Z,51.01
2023-02-19T12:49:03.393Z,50.84
2023-02-19T12:51:39.168Z,51.46
2023-02-19T12:54:13.251Z,52.08
2023-02-19T12:56:45.334Z,50.99
2023-02-19T12:59:16.585Z,49.66
2023-02-19T13:01:51.520Z,50.82
2023-02-19T13:04:27.188Z,50.54
2023-02-19T13:07:00.373Z,50.58
2023-02-19T13:09:34.587Z,50.79
2023-02-19T13:12:06.770Z,50.72
2023-02-19T13:14:38.238Z,51.10
2023-02-19T13:17:17.884Z,51.35
2023-02-19T13:19:49.605Z,51.13
2023-02-19T13:22:41.653Z,50.66
2023-02-19T13:25:11.089Z,51.67
2023-02-19T13:28:09.037Z,50.39
2023-02-19T13:30:54.422Z,50.81
2023-02-19T13:33:37.163Z,50.79
2023-02-19T13:36:12.143Z,50.73
2023-02-19T13:38:44.815Z,50.99
2023-02-19T13:41:28.503Z,51.05
2023-02-19T13:44:03.834Z,51.31
2023-02-19T13:46:39.049Z,50.87
2023-02-19T13:49:43.911Z,51.03
2023-02-19T13:52:44.385Z,50.17
2023-02-19T13:55:52.779Z,50.83
2023-02-19T13:59:01.979Z,50.40
2023-02-19T14:02:14.962Z,50.25
2023-02-19T14:04:51.159Z,50.74
2023-02-19T14:07:35.953Z,49.97
2023-02-19T14:10:09.717Z,51.45
2023-02-19T14:12:41.457Z,51.72
2023-02-19T14:15:44.584Z,51.70
2023-02-19T14:18:44.113Z,52.18
2023-02-19T14:21:23.675Z,52.35
2023-02-19T14:23:54.953Z,51.55
2023-02-19T14:26:25.923Z,51.31
2023-02-19T14:28:57.849Z,51.82
2023-02-19T14:31:29.859Z,50.87
2023-02-19T14:34:02.365Z,50.72
2023-02-19T14:36:44.213Z,52.00
2023-02-19T14:39:18.341Z,53.05
2023-02-19T14:41:50.196Z,52.25
2023-02-19T14:44:25.110Z,52.17
2023-02-19T14:46:58.671Z,52.43
2023-02-19T14:49:32.332Z,52.56
2023-02-19T14:52:02.227Z,53.78
2023-02-19T14:54:51.240Z,52.66
2023-02-19T14:57:23.224Z,52.86
2023-02-19T15:00:00.521Z,53.94
2023-02-19T15:02:30.293Z,52.38
2023-02-19T15:05:00.267Z,52.93
2023-02-19T15:07:30.775Z,52.46
2023-02-19T15:10:03.649Z,52.96
2023-02-19T15:12:44.997Z,53.76
2023-02-19T15:15:17.482Z,52.84
2023-02-19T15:17:49.532Z,53.68
2023-02-19T15:20:20.735Z,53.90
2023-02-19T15:22:48.887Z,52.94
2023-02-19T15:25:22.080Z,53.56
2023-02-19T15:27:53.613Z,54.51
2023-02-19T15:30:24.927Z,54.58
2023-02-19T15:32:54.332Z,53.61
2023-02-19T15:35:24.333Z,54.17
2023-02-19T15:37:52.820Z,53.82
2023-02-19T15:40:27.533Z,54.11
2023-02-19T15:42:58.985Z,54.29
2023-02-19T15:45:47.913Z,54.47
2023-02-19T15:48:21.644Z,54.95
2023-02-19T15:50:53.502Z,55.38
2023-02-19T15:53:24.471Z,55.75
2023-02-19T15:56:02.043Z,55.80
2023-02-19T15:58:38.809Z,55.32
2023-02-19T16:01:16.617Z,55.22
2023-02-19T16:03:58.253Z,55.28
2023-02-19T16:06:59.170Z,56.38
2023-02-19T16:09:33.649Z,55.64
2023-02-19T16:12:02.611Z,57.13
2023-02-19T16:14:34.269Z,56.96
2023-02-19T16:17:13.462Z,56.62
2023-02-19T16:19:46.927Z,56.23
2023-02-19T16:22:18.544Z,58.09
2023-02-19T16:24:47.594Z,56.61
2023-02-19T16:27:28.936Z,56.96
2023-02-19T16:29:59.020Z,56.45
2023-02-19T16:32:27.081Z,56.93
2023-02-19T16:34:55.001Z,57.09
2023-02-19T16:37:35.649Z,57.78
2023-02-19T16:40:52.530Z,56.98
2023-02-19T16:43:31.819Z,57.26
2023-02-19T16:46:05.259Z,58.12
2023-02-19T16:48:33.143Z,58.23
2023-02-19T16:51:01.465Z,58.21
2023-02-19T16:53:33.174Z,58.81
2023-02-19T16:56:01.105Z,59.24
2023-02-19T16:58:28.828Z,59.14
2023-02-19T17:00:59.286Z,58.87
2023-02-19T17:03:30.596Z,58.58
2023-02-19T17:05:58.549Z,58.96
2023-02-19T17:08:38.876Z,58.84
2023-02-19T17:11:12.437Z,58.82
2023-02-19T17:13:40.917Z,59.21
2023-02-19T17:16:09.578Z,60.27
2023-02-19T17:18:40.814Z,59.35
2023-02-19T17:21:17.668Z,59.41
2023-02-19T17:23:47.676Z,59.79
2023-02-19T17:26:16.164Z,60.35
2023-02-19T17:28:46.278Z,59.90
2023-02-19T17:31:16.518Z,59.49
2023-02-19T17:33:46.802Z,59.70
2023-02-19T17:36:22.732Z,60.23
2023-02-19T17:38:51.171Z,59.64
2023-02-19T17:41:18.964Z,61.04
2023-02-19T17:43:49.415Z,61.39
2023-02-19T17:46:17.409Z,61.90
2023-02-19T17:48:46.809Z,60.59
2023-02-19T17:51:16.656Z,61.41
2023-02-19T17:53:46.530Z,61.40
2023-02-19T17:56:17.686Z,61.71
2023-02-19T17:58:45.548Z,62.00
2023-02-19T18:01:13.923Z,62.38
2023-02-19T18:03:42.046Z,62.78
2023-02-19T18:06:11.389Z,63.56
2023-02-19T18:08:39.342Z,63.52
2023-02-19T18:11:08.507Z,64.11
2023-02-19T18:13:37.859Z,64.26
2023-02-19T18:16:06.850Z,63.46
2023-02-19T18:18:34.689Z,62.58
2023-02-19T18:21:04.381Z,62.48
2023-02-19T18:23:33.426Z,63.32
2023-02-19T18:26:01.447Z,63.23
2023-02-19T18:28:29.257Z,63.34
2023-02-19T18:30:57.016Z,63.16
2023-02-19T18:33:27.001Z,63.55
2023-02-19T18:35:54.829Z,62.17
2023-02-19T18:38:22.640Z,62.95
2023-02-19T18:40:58.830Z,63.14
2023-02-19T18:43:27.057Z,63.17
2023-02-19T18:45:54.817Z,62.52
2023-02-19T18:48:22.964Z,62.41
2023-02-19T18:50:52.413Z,62.15
2023-02-19T18:53:20.205Z,63.48
2023-02-19T18:55:48.569Z,63.55
2023-02-19T18:58:18.777Z,63.86
2023-02-19T19:00:46.655Z,63.41
2023-02-19T19:03:16.610Z,64.45
2023-02-19T19:05:44.419Z,64.58
2023-02-19T19:08:12.131Z,64.79
2023-02-19T19:10:44.161Z,63.61
2023-02-19T19:13:11.888Z,63.83
2023-02-19T19:15:41.417Z,63.73
2023-02-19T19:18:13.245Z,64.19
2023-02-19T19:20:40.977Z,63.77
2023-02-19T19:23:08.698Z,65.05
2023-02-19T19:25:40.572Z,64.65
2023-02-19T19:28:08.367Z,63.50
2023-02-19T19:30:36.126Z,63.77
2023-02-19T19:33:07.437Z,64.54
2023-02-19T19:35:36.547Z,64.16
2023-02-19T19:38:04.415Z,64.91
2023-02-19T19:40:34.314Z,64.37
2023-02-19T19:43:04.213Z,64.96
2023-02-19T19:48:15.049Z,65.44
2023-02-19T19:50:42.781Z,65.50
2023-02-19T19:53:10.535Z,66.09
2023-02-19T19:55:40.501Z,67.11
2023-02-19T19:58:08.372Z,67.55
2023-02-19T20:00:38.346Z,66.50
2023-02-19T20:03:07.053Z,65.86
2023-02-19T20:05:36.196Z,66.24
2023-02-19T20:08:03.929Z,67.01
2023-02-19T20:10:32.156Z,66.79
2023-02-19T20:13:00.219Z,66.73
2023-02-19T20:15:27.915Z,67.02
2023-02-19T20:17:55.867Z,65.43
2023-02-19T20:20:24.090Z,67.13
2023-02-19T20:22:53.736Z,67.20
2023-02-19T20:25:26.290Z,67.06
2023-02-19T20:27:54.662Z,65.97
2023-02-19T20:30:24.714Z,66.22
2023-02-19T20:32:55.436Z,66.76
2023-02-19T20:35:26.489Z,66.60
2023-02-19T20:37:55.804Z,66.48
2023-02-19T20:40:27.420Z,65.95
2023-02-19T20:42:57.448Z,66.67
2023-02-19T20:45:25.174Z,66.96
2023-02-19T20:47:53.185Z,65.97
2023-02-19T20:50:23.365Z,66.73
2023-02-19T20:52:51.263Z,66.35
2023-02-19T20:55:20.926Z,65.75
2023-02-19T20:57:50.768Z,67.37
2023-02-19T21:00:21.975Z,66.26
2023-02-19T21:02:49.864Z,67.34
2023-02-19T21:05:20.517Z,67.49
2023-02-19T21:07:48.315Z,67.08
2023-02-19T21:10:16.214Z,69.17
2023-02-19T21:12:52.391Z,68.27
2023-02-19T21:15:20.372Z,67.60
2023-02-19T21:17:48.168Z,68.74
2023-02-19T21:20:18.889Z,67.56
2023-02-19T21:22:48.831Z,67.25
2023-02-19T21:25:16.816Z,68.05
2023-02-19T21:27:46.634Z,67.71
2023-02-19T21:30:17.887Z,68.08
2023-02-19T21:32:45.635Z,68.20
2023-02-19T21:35:15.651Z,68.01
2023-02-19T21:37:46.316Z,68.75
2023-02-19T21:40:14.725Z,67.90
2023-02-19T21:42:44.664Z,68.06
2023-02-19T21:45:14.258Z,67.34
2023-02-19T21:47:43.815Z,68.66
2023-02-19T21:50:13.967Z,69.28
2023-02-19T21:52:43.654Z,70.50
2023-02-19T21:55:11.359Z,70.20
2023-02-19T21:57:41.438Z,68.92
2023-02-19T22:00:12.613Z,69.87
2023-02-19T22:02:40.396Z,70.18
2023-02-19T22:05:11.425Z,71.06
2023-02-19T22:07:41.114Z,69.94
2023-02-19T22:10:13.510Z,68.84
2023-02-19T22:12:41.195Z,70.16
2023-02-19T22:15:11.363Z,69.80
2023-02-19T22:17:41.241Z,69.85
2023-02-19T22:20:10.767Z,70.65
2023-02-19T22:22:38.611Z,70.80
2023-02-19T22:25:06.888Z,69.18
2023-02-19T22:27:34.790Z,69.47
2023-02-19T22:30:04.381Z,71.35
2023-02-19T22:32:32.350Z,72.65
2023-02-19T22:35:00.066Z,70.57
2023-02-19T22:37:31.600Z,72.84
2023-02-19T22:40:01.623Z,72.11
2023-02-19T22:42:29.414Z,71.39
2023-02-19T22:44:59.528Z,71.22
2023-02-19T22:47:29.465Z,71.02
2023-02-19T22:49:57.321Z,71.17
2023-02-19T22:52:30.087Z,72.96
2023-02-19T22:55:01.465Z,71.73
2023-02-19T22:57:31.891Z,70.10
2023-02-19T22:59:59.431Z,71.17
2023-02-19T23:02:29.364Z,71.33
2023-02-19T23:04:58.976Z,72.11
2023-02-19T23:07:26.836Z,71.30
2023-02-19T23:09:56.909Z,69.99
2023-02-19T23:12:28.410Z,71.53
2023-02-19T23:14:56.122Z,71.44
2023-02-19T23:17:26.141Z,72.32
2023-02-19T23:19:55.756Z,72.77
2023-02-19T23:22:23.508Z,72.25
2023-02-19T23:24:53.549Z,73.59
2023-02-19T23:27:26.031Z,73.44
2023-02-19T23:29:57.509Z,72.57
2023-02-19T23:32:25.206Z,72.37
2023-02-19T23:34:54.762Z,71.10
2023-02-19T23:37:24.830Z,70.90
2023-02-19T23:39:52.532Z,72.63
2023-02-19T23:42:22.166Z,72.57
2023-02-19T23:44:52.038Z,72.95
2023-02-19T23:47:37.805Z,73.12
2023-02-19T23:50:08.225Z,73.28
2023-02-19T23:52:35.771Z,73.75
2023-02-19T23:55:05.771Z,74.32
2023-02-19T23:57:35.831Z,74.94
